Time;durP1;ratioP1;P1;durP2;ratioP2;P2;SDS_P1;SDS_P2;PMS_P1;PMS_P2;Temp;Humidity;BMP_temperature;BMP_pressure;BME280_temperature;BME280_humidity;BME280_pressure;Samples;Min_cycle;Max_cycle;Signal;HPM_P1;HPM_P2
2023/03/27 00:01:13;;;;;;;9.97;2.23;;;1.50;99.90;;;;;;6310866;22;20054;-85
2023/03/27 00:03:39;;;;;;;15.68;2.95;;;2.20;99.90;;;;;;6310256;22;20015;-85
2023/03/27 00:06:26;;;;;;;13.37;2.90;;;1.20;99.90;;;;;;6308467;22;20030;-85
2023/03/27 00:08:52;;;;;;;10.77;2.10;;;1.30;99.90;;;;;;6308133;22;20384;-85
2023/03/27 00:11:27;;;;;;;16.33;3.30;;;1.40;99.90;;;;;;6305506;22;20351;-85
2023/03/27 00:13:53;;;;;;;11.83;2.37;;;2.20;99.90;;;;;;6306530;22;20019;-85
2023/03/27 00:16:26;;;;;;;8.40;2.10;;;1.20;99.90;;;;;;6308293;22;20015;-85
2023/03/27 00:18:53;;;;;;;13.93;2.40;;;1.20;99.90;;;;;;6305956;22;20025;-85
2023/03/27 00:21:21;;;;;;;8.93;2.70;;;1.20;99.90;;;;;;6308160;22;20268;-85
2023/03/27 00:23:47;;;;;;;15.30;3.10;;;1.20;99.90;;;;;;6306635;22;20480;-85
2023/03/27 00:26:14;;;;;;;11.03;3.03;;;1.20;99.90;;;;;;6307126;22;20026;-85
2023/03/27 00:28:40;;;;;;;10.37;2.40;;;1.10;99.90;;;;;;6306668;22;20015;-85
2023/03/27 00:31:14;;;;;;;13.90;2.50;;;2.10;99.90;;;;;;6314316;22;20043;-86
2023/03/27 00:33:40;;;;;;;11.90;2.45;;;1.10;99.90;;;;;;6313320;22;20022;-86
2023/03/27 00:36:06;;;;;;;12.23;2.60;;;1.10;99.90;;;;;;6308237;22;20012;-85
2023/03/27 00:38:35;;;;;;;13.00;3.23;;;1.20;99.90;;;;;;6307679;22;20015;-85
2023/03/27 00:41:01;;;;;;;11.47;2.60;;;1.10;99.90;;;;;;6308193;22;20015;-85
2023/03/27 00:43:34;;;;;;;12.23;2.70;;;1.10;99.90;;;;;;6308645;22;20331;-85
2023/03/27 00:46:04;;;;;;;11.25;2.78;;;1.10;99.90;;;;;;6306030;22;20451;-86
2023/03/27 00:48:34;;;;;;;13.80;2.50;;;1.10;99.90;;;;;;6306358;22;20015;-86
2023/03/27 00:51:00;;;;;;;12.07;2.30;;;1.00;99.90;;;;;;6307584;22;20022;-85
2023/03/27 00:53:28;;;;;;;14.37;2.30;;;1.10;99.90;;;;;;6307479;22;20094;-85
2023/03/27 00:55:57;;;;;;;11.10;2.87;;;1.00;99.90;;;;;;6308082;22;20066;-85
2023/03/27 00:58:37;;;;;;;12.87;2.57;;;1.00;99.90;;;;;;6305439;22;20023;-86
2023/03/27 01:01:14;;;;;;;9.63;2.30;;;1.10;99.90;;;;;;6308794;22;20019;-85
2023/03/27 01:03:43;;;;;;;12.57;2.37;;;1.00;99.90;;;;;;6306119;22;20019;-85
2023/03/27 01:06:15;;;;;;;10.47;2.20;;;2.40;99.90;;;;;;6307171;22;20483;-85
2023/03/27 01:08:43;;;;;;;9.83;2.30;;;1.10;99.90;;;;;;6305327;22;20316;-85
2023/03/27 01:11:32;;;;;;;12.47;2.13;;;1.10;99.90;;;;;;6305740;22;20009;-85
2023/03/27 01:14:07;;;;;;;7.93;2.33;;;1.10;99.90;;;;;;6304262;22;20699;-85
2023/03/27 01:16:57;;;;;;;13.23;2.07;;;2.00;99.90;;;;;;6306193;22;20026;-85
2023/03/27 01:19:34;;;;;;;9.73;2.43;;;1.10;99.90;;;;;;6305652;22;20011;-85
2023/03/27 01:22:17;;;;;;;12.43;2.17;;;1.10;99.90;;;;;;6306591;22;20019;-86
2023/03/27 01:25:12;;;;;;;9.88;2.28;;;1.10;99.90;;;;;;6306367;22;20019;-85
2023/03/27 01:28:10;;;;;;;11.67;2.57;;;1.00;99.90;;;;;;6260654;22;20019;-85
2023/03/27 01:30:48;;;;;;;8.60;2.20;;;1.00;99.90;;;;;;6306133;22;20098;-85
2023/03/27 01:33:26;;;;;;;11.43;2.13;;;1.00;99.90;;;;;;6310921;22;19999;-85
2023/03/27 01:36:01;;;;;;;13.20;2.40;;;1.00;99.90;;;;;;6317056;22;20038;-85
2023/03/27 01:38:32;;;;;;;13.03;2.37;;;1.00;99.90;;;;;;6307815;22;20019;-85
2023/03/27 01:41:20;;;;;;;10.57;1.90;;;1.00;99.90;;;;;;6305479;22;20015;-85
2023/03/27 01:43:55;;;;;;;12.90;2.10;;;1.00;99.90;;;;;;6306997;22;20340;-85
2023/03/27 01:46:28;;;;;;;13.17;2.27;;;1.00;99.90;;;;;;6305780;22;20147;-85
2023/03/27 01:48:59;;;;;;;10.93;2.30;;;1.00;99.90;;;;;;6306880;22;20018;-85
2023/03/27 01:51:40;;;;;;;9.47;1.90;;;1.00;99.90;;;;;;6305416;22;20472;-85
2023/03/27 01:54:36;;;;;;;8.63;2.00;;;0.90;99.90;;;;;;6307644;22;20019;-85
2023/03/27 01:57:24;;;;;;;12.00;2.10;;;0.90;99.90;;;;;;6306404;22;20023;-85
2023/03/27 02:00:10;;;;;;;11.00;2.30;;;1.00;99.90;;;;;;6305928;22;20012;-86
2023/03/27 02:02:37;;;;;;;13.87;2.60;;;1.00;99.90;;;;;;6307699;22;20034;-86
2023/03/27 02:05:13;;;;;;;9.00;1.87;;;1.00;99.90;;;;;;6314249;22;20015;-85
2023/03/27 02:07:44;;;;;;;11.13;2.00;;;1.10;99.90;;;;;;6317730;22;20015;-86
2023/03/27 02:10:14;;;;;;;10.87;1.97;;;1.10;99.90;;;;;;6312787;22;20019;-85
2023/03/27 02:12:47;;;;;;;8.13;2.20;;;1.10;99.90;;;;;;6307995;22;20067;-86
2023/03/27 02:15:19;;;;;;;8.25;2.10;;;1.20;99.90;;;;;;6307195;22;20064;-85
2023/03/27 02:17:55;;;;;;;12.60;2.73;;;1.10;99.90;;;;;;6304562;22;20152;-85
2023/03/27 02:20:22;;;;;;;10.93;1.83;;;1.20;99.90;;;;;;6305253;22;20007;-86
2023/03/27 02:22:49;;;;;;;6.90;1.97;;;1.20;99.90;;;;;;6305851;22;20015;-86
2023/03/27 02:25:43;;;;;;;8.30;2.30;;;2.50;99.90;;;;;;6304391;22;20018;-86
2023/03/27 02:28:17;;;;;;;11.40;2.13;;;1.30;99.90;;;;;;6305256;22;20007;-86
2023/03/27 02:30:46;;;;;;;10.23;3.23;;;1.30;99.90;;;;;;6307235;22;20084;-86
2023/03/27 02:33:26;;;;;;;11.10;2.30;;;1.30;99.90;;;;;;6303969;22;20074;-86
2023/03/27 02:36:05;;;;;;;9.70;2.73;;;1.20;99.90;;;;;;6305563;22;20015;-86
2023/03/27 02:38:45;;;;;;;17.57;2.83;;;1.20;99.90;;;;;;6304833;22;20011;-86
2023/03/27 02:41:32;;;;;;;8.67;1.80;;;1.30;99.90;;;;;;6307089;22;20015;-85
2023/03/27 02:44:24;;;;;;;10.57;1.90;;;1.20;99.90;;;;;;6304991;22;20015;-86
2023/03/27 02:46:55;;;;;;;10.77;2.50;;;1.20;99.90;;;;;;6306690;22;20026;-86
2023/03/27 02:49:28;;;;;;;13.47;2.40;;;1.20;99.90;;;;;;6307256;22;20427;-86
2023/03/27 02:52:05;;;;;;;11.60;1.97;;;1.20;99.90;;;;;;6305838;22;20011;-85
2023/03/27 02:54:41;;;;;;;8.43;1.87;;;1.20;99.90;;;;;;6307027;22;20019;-86
2023/03/27 02:57:13;;;;;;;10.80;2.20;;;1.20;99.90;;;;;;6316015;22;20019;-86
2023/03/27 02:59:44;;;;;;;13.80;2.90;;;1.10;99.90;;;;;;6333083;22;20024;-86
2023/03/27 03:02:16;;;;;;;12.83;2.70;;;1.10;99.90;;;;;;6306937;22;20011;-86
2023/03/27 03:04:49;;;;;;;10.20;2.50;;;1.10;99.90;;;;;;6306764;22;20023;-86
2023/03/27 03:07:27;;;;;;;11.60;2.53;;;1.00;99.90;;;;;;6308398;22;20334;-86
2023/03/27 03:09:53;;;;;;;9.20;2.50;;;0.80;99.90;;;;;;6306842;22;20347;-86
2023/03/27 03:12:20;;;;;;;9.87;2.60;;;0.90;99.90;;;;;;6307116;22;20019;-86
2023/03/27 03:14:58;;;;;;;12.47;2.50;;;2.00;99.90;;;;;;6308580;22;20043;-86
2023/03/27 03:17:23;;;;;;;10.50;2.13;;;1.20;99.90;;;;;;6307438;22;20026;-86
2023/03/27 03:19:49;;;;;;;11.57;2.17;;;2.30;99.90;;;;;;6307166;22;20012;-86
2023/03/27 03:22:26;;;;;;;7.13;2.00;;;1.80;99.90;;;;;;6307978;22;20011;-86
2023/03/27 03:24:52;;;;;;;10.43;1.83;;;0.40;99.90;;;;;;6307771;22;20019;-86
2023/03/27 03:27:27;;;;;;;8.47;1.80;;;0.60;99.90;;;;;;6307801;22;20309;-86
2023/03/27 03:30:15;;;;;;;10.93;2.57;;;1.00;99.90;;;;;;6307724;22;20385;-86
2023/03/27 03:32:40;;;;;;;11.53;2.23;;;1.10;99.90;;;;;;6306721;22;20026;-86
2023/03/27 03:35:08;;;;;;;7.73;1.90;;;1.40;99.90;;;;;;6307830;22;20007;-86
2023/03/27 03:37:51;;;;;;;9.00;1.90;;;1.30;99.90;;;;;;6306968;22;20015;-86
2023/03/27 03:40:19;;;;;;;8.90;2.17;;;1.40;99.90;;;;;;6306344;22;20098;-86
2023/03/27 03:43:00;;;;;;;10.10;1.80;;;0.90;99.90;;;;;;6306079;22;20436;-86
2023/03/27 03:45:26;;;;;;;9.90;2.20;;;1.30;99.90;;;;;;6320903;22;20008;-86
2023/03/27 03:48:07;;;;;;;12.17;2.10;;;0.90;99.90;;;;;;6309753;22;20037;-86
2023/03/27 03:50:32;;;;;;;15.10;2.40;;;1.50;99.90;;;;;;6308104;22;20301;-86
2023/03/27 03:52:58;;;;;;;9.53;2.30;;;2.70;99.90;;;;;;6306491;22;20011;-86
2023/03/27 03:55:39;;;;;;;8.13;2.10;;;0.90;99.90;;;;;;6308486;22;20011;-86
2023/03/27 03:58:05;;;;;;;9.03;2.17;;;0.90;99.90;;;;;;6306347;22;20015;-86
2023/03/27 04:00:36;;;;;;;8.80;1.97;;;1.30;99.90;;;;;;6306074;22;20346;-86
2023/03/27 04:03:40;;;;;;;7.33;1.63;;;0.80;99.90;;;;;;6306994;22;20504;-86
2023/03/27 04:06:06;;;;;;;10.67;2.20;;;1.00;99.90;;;;;;6305382;22;20089;-86
2023/03/27 04:08:47;;;;;;;7.93;1.90;;;0.90;99.90;;;;;;6306610;22;20037;-86
2023/03/27 04:11:25;;;;;;;9.23;2.33;;;2.80;99.90;;;;;;6305263;22;20458;-86
2023/03/27 04:13:59;;;;;;;10.63;2.37;;;1.00;99.90;;;;;;6306727;22;20019;-86
2023/03/27 04:16:37;;;;;;;12.00;2.00;;;0.30;99.90;;;;;;6308774;22;20019;-86
2023/03/27 04:19:18;;;;;;;13.60;2.47;;;0.60;99.90;;;;;;6308581;22;20039;-86
2023/03/27 04:21:56;;;;;;;12.77;2.43;;;1.50;99.90;;;;;;6280722;22;20011;-86
2023/03/27 04:24:25;;;;;;;11.23;2.63;;;0.70;99.90;;;;;;6305643;22;20023;-86
2023/03/27 04:27:00;;;;;;;13.93;2.33;;;1.50;99.90;;;;;;6305176;22;20047;-86
2023/03/27 04:29:33;;;;;;;11.63;2.33;;;1.30;99.90;;;;;;6308758;22;20011;-86
2023/03/27 04:32:11;;;;;;;8.77;2.07;;;2.50;99.90;;;;;;6313117;22;20008;-86
2023/03/27 04:34:40;;;;;;;9.57;2.03;;;1.90;99.90;;;;;;6307232;22;20019;-86
2023/03/27 04:37:13;;;;;;;9.20;2.00;;;1.40;99.90;;;;;;6306550;22;20065;-86
2023/03/27 04:39:59;;;;;;;8.13;2.20;;;0.40;99.90;;;;;;6315696;22;20015;-86
2023/03/27 04:42:43;;;;;;;11.90;2.07;;;0.40;99.90;;;;;;6308096;22;20428;-85
2023/03/27 04:45:19;;;;;;;11.27;2.13;;;2.00;99.90;;;;;;6306500;22;20045;-87
2023/03/27 04:47:46;;;;;;;10.17;1.97;;;0.50;99.90;;;;;;6309640;22;20019;-86
2023/03/27 04:50:12;;;;;;;10.27;1.90;;;0.70;99.90;;;;;;6309028;22;20015;-86
2023/03/27 04:52:48;;;;;;;7.17;1.70;;;0.30;99.90;;;;;;6306006;22;20019;-86
2023/03/27 04:55:25;;;;;;;7.80;2.00;;;0.20;99.90;;;;;;6306840;22;20086;-85
2023/03/27 04:58:11;;;;;;;8.27;1.87;;;1.30;99.90;;;;;;6306779;22;20015;-86
2023/03/27 05:00:39;;;;;;;11.20;2.27;;;0.50;99.90;;;;;;6305243;22;20011;-86
2023/03/27 05:03:17;;;;;;;10.57;2.00;;;0.30;99.90;;;;;;6285136;22;20024;-86
2023/03/27 05:06:03;;;;;;;9.90;2.17;;;0.60;99.90;;;;;;6295265;22;20138;-86
2023/03/27 05:08:38;;;;;;;10.73;2.00;;;0.60;99.90;;;;;;6251942;22;20086;-86
2023/03/27 05:11:12;;;;;;;13.83;2.17;;;0.80;99.90;;;;;;6250059;22;20012;-86
2023/03/27 05:13:56;;;;;;;9.60;1.93;;;1.00;99.90;;;;;;6248811;22;20022;-86
2023/03/27 05:16:32;;;;;;;10.50;2.47;;;1.10;99.90;;;;;;6276947;22;20016;-86
2023/03/27 05:19:18;;;;;;;10.20;2.30;;;2.50;99.90;;;;;;6249236;22;20081;-86
2023/03/27 05:21:59;;;;;;;7.77;2.10;;;0.20;99.90;;;;;;6286026;22;20443;-86
2023/03/27 05:24:31;;;;;;;14.03;2.37;;;1.00;99.90;;;;;;6282937;22;20386;-86
2023/03/27 05:26:57;;;;;;;9.50;2.20;;;1.50;99.90;;;;;;6307045;22;20015;-86
2023/03/27 05:29:23;;;;;;;10.37;2.30;;;1.00;99.90;;;;;;6307781;22;20447;-86
2023/03/27 05:31:58;;;;;;;14.33;2.37;;;-0.20;99.90;;;;;;6307728;22;20026;-86
2023/03/27 05:34:37;;;;;;;10.20;2.53;;;1.00;99.90;;;;;;6279627;22;20020;-86
2023/03/27 05:37:05;;;;;;;12.17;2.53;;;0.40;99.90;;;;;;6279902;22;20007;-86
2023/03/27 05:39:40;;;;;;;8.77;2.27;;;1.30;99.90;;;;;;6307565;22;20093;-86
2023/03/27 05:42:15;;;;;;;10.93;2.50;;;2.60;99.90;;;;;;6306672;22;20090;-86
2023/03/27 05:44:46;;;;;;;12.70;2.33;;;1.50;99.90;;;;;;6280279;22;20022;-86
2023/03/27 05:47:27;;;;;;;10.47;2.67;;;1.00;99.90;;;;;;6306478;22;20019;-86
2023/03/27 05:50:06;;;;;;;11.40;2.50;;;1.40;99.90;;;;;;6279173;22;20015;-86
2023/03/27 05:52:32;;;;;;;9.27;2.27;;;0.90;99.90;;;;;;6307747;22;20027;-86
2023/03/27 05:55:05;;;;;;;10.47;2.20;;;1.70;99.90;;;;;;6279587;22;20519;-86
2023/03/27 05:57:41;;;;;;;11.48;2.35;;;0.90;99.90;;;;;;6307666;22;20394;-86
2023/03/27 06:00:21;;;;;;;13.33;2.50;;;0.70;99.90;;;;;;6279488;22;20018;-86
2023/03/27 06:03:37;;;;;;;12.53;2.20;;;1.00;99.90;;;;;;6331496;22;20018;-86
2023/03/27 06:06:29;;;;;;;9.27;2.20;;;2.10;99.90;;;;;;6319693;22;20030;-86
2023/03/27 06:09:08;;;;;;;8.37;2.03;;;1.70;99.90;;;;;;6310722;22;20064;-87
2023/03/27 06:11:58;;;;;;;10.38;2.60;;;1.60;99.90;;;;;;6314335;22;20010;-86
2023/03/27 06:14:39;;;;;;;9.23;2.40;;;1.60;99.90;;;;;;6319079;22;20019;-86
2023/03/27 06:17:05;;;;;;;10.17;2.13;;;1.70;99.90;;;;;;6337831;22;20071;-86
2023/03/27 06:19:34;;;;;;;11.63;2.10;;;0.70;99.90;;;;;;6311096;22;20076;-86
2023/03/27 06:22:06;;;;;;;9.90;2.13;;;1.20;99.90;;;;;;6337881;22;20517;-85
2023/03/27 06:24:38;;;;;;;10.63;2.47;;;1.10;99.90;;;;;;6310154;22;20021;-85
2023/03/27 06:27:09;;;;;;;8.77;2.10;;;1.00;99.90;;;;;;6338207;22;20086;-86
2023/03/27 06:30:01;;;;;;;9.23;2.20;;;1.40;99.90;;;;;;6338929;22;20018;-85
2023/03/27 06:32:29;;;;;;;7.43;2.07;;;2.30;99.90;;;;;;6310120;22;20343;-85
2023/03/27 06:38:22;;;;;;;9.33;2.20;;;1.70;99.90;;;;;;6211302;23;20412;-85
2023/03/27 06:41:00;;;;;;;16.90;5.40;;;2.20;99.90;;;;;;6212796;23;20021;-84
2023/03/27 06:43:38;;;;;;;10.90;2.30;;;1.30;99.90;;;;;;6187593;23;20075;-83
2023/03/27 06:46:23;;;;;;;10.30;2.20;;;2.20;99.90;;;;;;6213213;23;20020;-83
2023/03/27 06:48:49;;;;;;;11.03;2.33;;;1.10;99.90;;;;;;6214584;23;20021;-81
2023/03/27 06:51:25;;;;;;;11.97;2.70;;;2.10;99.90;;;;;;6213369;23;20414;-82
2023/03/27 06:54:03;;;;;;;8.90;2.47;;;2.50;99.90;;;;;;6214548;23;20055;-82
2023/03/27 06:56:44;;;;;;;10.43;2.57;;;1.90;99.90;;;;;;6301937;22;20011;-82
2023/03/27 06:59:10;;;;;;;11.30;2.03;;;2.70;99.90;;;;;;6319034;22;20015;-81
2023/03/27 07:01:53;;;;;;;13.83;3.10;;;2.00;99.90;;;;;;6340294;22;20115;-83
2023/03/27 07:04:45;;;;;;;8.00;2.15;;;2.10;99.90;;;;;;6281066;22;20450;-83
2023/03/27 07:07:29;;;;;;;7.53;1.83;;;2.30;99.90;;;;;;6307274;22;20045;-82
2023/03/27 07:09:54;;;;;;;8.35;1.60;;;2.20;99.90;;;;;;6281237;22;20015;-82
2023/03/27 07:12:40;;;;;;;7.07;1.93;;;2.50;99.90;;;;;;6307675;22;20153;-82
2023/03/27 07:15:19;;;;;;;6.60;1.37;;;3.30;99.90;;;;;;6280968;22;20018;-82
2023/03/27 07:18:05;;;;;;;6.30;1.50;;;2.60;99.90;;;;;;6308416;22;20339;-83
2023/03/27 07:20:46;;;;;;;11.50;1.40;;;2.00;99.90;;;;;;6280407;22;20038;-82
2023/03/27 07:23:12;;;;;;;6.87;1.20;;;2.80;99.90;;;;;;6280428;22;20022;-81
2023/03/27 07:25:51;;;;;;;11.33;1.60;;;2.70;99.90;;;;;;6308646;22;20027;-81
2023/03/27 07:28:17;;;;;;;6.27;1.47;;;2.70;99.90;;;;;;6279807;22;20068;-81
2023/03/27 07:31:21;;;;;;;12.13;1.80;;;3.20;99.90;;;;;;6308543;22;20444;-81
2023/03/27 07:33:46;;;;;;;7.97;1.87;;;3.10;99.90;;;;;;6272778;22;20022;-82
2023/03/27 07:36:13;;;;;;;9.80;1.70;;;3.20;99.90;;;;;;6308795;22;20043;-81
2023/03/27 07:38:40;;;;;;;6.50;1.60;;;3.30;99.90;;;;;;6315613;22;20481;-87
2023/03/27 07:41:05;;;;;;;10.47;1.80;;;3.30;99.90;;;;;;6309232;22;20074;-82
2023/03/27 07:43:33;;;;;;;6.30;1.53;;;3.40;99.90;;;;;;6281267;22;20058;-84
2023/03/27 07:45:59;;;;;;;6.23;1.87;;;3.40;99.90;;;;;;6281531;22;20012;-83
2023/03/27 07:48:26;;;;;;;13.33;4.50;;;3.40;99.90;;;;;;6280967;22;20072;-83
2023/03/27 07:50:57;;;;;;;7.50;1.83;;;3.40;99.90;;;;;;6308714;22;20038;-82
2023/03/27 07:53:24;;;;;;;4.43;1.43;;;3.50;99.90;;;;;;6306626;22;20057;-83
2023/03/27 07:55:51;;;;;;;9.40;1.77;;;3.50;99.90;;;;;;6307707;22;20054;-83
2023/03/27 07:58:20;;;;;;;8.83;1.70;;;3.50;99.90;;;;;;6308513;22;20019;-82
2023/03/27 08:00:50;;;;;;;6.80;1.50;;;3.60;99.90;;;;;;6307843;22;20522;-82
2023/03/27 08:03:16;;;;;;;8.37;1.53;;;3.70;99.90;;;;;;6295982;22;20046;-81
2023/03/27 08:05:42;;;;;;;11.17;1.80;;;3.80;99.90;;;;;;6306151;22;20090;-82
2023/03/27 08:08:09;;;;;;;8.63;1.93;;;3.90;99.90;;;;;;6307566;22;20035;-83
2023/03/27 08:10:36;;;;;;;6.47;1.60;;;4.00;99.90;;;;;;6305629;22;20070;-82
2023/03/27 08:13:01;;;;;;;7.60;1.53;;;4.10;99.90;;;;;;6306105;22;20042;-83
2023/03/27 08:15:27;;;;;;;10.70;2.00;;;4.10;99.90;;;;;;6308622;22;20500;-82
2023/03/27 08:17:53;;;;;;;12.07;2.07;;;4.20;99.90;;;;;;6305528;22;20016;-82
2023/03/27 08:20:21;;;;;;;7.83;1.73;;;4.30;99.90;;;;;;6307936;22;20340;-82
2023/03/27 08:22:49;;;;;;;9.07;1.77;;;4.40;99.90;;;;;;6305623;22;20026;-82
2023/03/27 08:25:14;;;;;;;6.77;1.60;;;4.50;99.90;;;;;;6307741;22;20137;-83
2023/03/27 08:27:42;;;;;;;12.13;2.00;;;4.50;99.90;;;;;;6308118;22;20061;-83
2023/03/27 08:30:08;;;;;;;9.83;1.80;;;4.60;99.90;;;;;;6306468;22;20127;-84
2023/03/27 08:32:34;;;;;;;10.00;2.10;;;4.80;99.90;;;;;;6319396;22;20012;-83
2023/03/27 08:34:59;;;;;;;9.27;1.80;;;4.90;99.90;;;;;;6305819;22;20020;-83
2023/03/27 08:37:26;;;;;;;11.03;2.30;;;5.10;99.90;;;;;;6305390;22;20496;-83
2023/03/27 08:39:57;;;;;;;12.33;2.80;;;5.40;99.90;;;;;;6306349;22;20019;-83
2023/03/27 08:42:35;;;;;;;8.27;1.60;;;5.60;99.90;;;;;;6307992;22;20012;-81
2023/03/27 08:45:18;;;;;;;5.90;1.40;;;5.40;99.90;;;;;;6307020;22;20090;-80
2023/03/27 08:47:52;;;;;;;5.47;1.60;;;4.40;99.90;;;;;;6306249;22;20015;-80
2023/03/27 08:50:32;;;;;;;5.10;1.57;;;3.50;99.90;;;;;;6307258;22;20499;-79
2023/03/27 08:52:59;;;;;;;6.20;1.40;;;2.90;99.90;;;;;;6306784;22;20024;-80
2023/03/27 08:55:39;;;;;;;5.47;1.33;;;2.60;99.90;;;;;;6308242;22;20011;-80
2023/03/27 08:58:08;;;;;;;6.47;1.70;;;2.60;99.90;;;;;;6304699;22;20094;-81
2023/03/27 09:00:39;;;;;;;11.93;2.10;;;2.80;99.90;;;;;;6308027;22;20046;-81
2023/03/27 09:03:17;;;;;;;7.47;1.70;;;2.90;99.90;;;;;;6305265;22;20023;-80
2023/03/27 09:06:02;;;;;;;8.73;1.80;;;3.00;99.90;;;;;;6306534;22;20404;-80
2023/03/27 09:08:33;;;;;;;7.93;1.70;;;3.30;99.90;;;;;;6307921;22;20086;-80
2023/03/27 09:11:14;;;;;;;6.87;1.47;;;3.20;99.90;;;;;;6307492;22;20016;-81
2023/03/27 09:13:50;;;;;;;7.67;1.60;;;3.30;99.90;;;;;;6306116;22;20478;-80
2023/03/27 09:16:24;;;;;;;7.00;1.60;;;3.40;99.90;;;;;;6305643;22;20011;-80
2023/03/27 09:19:10;;;;;;;7.07;1.60;;;3.60;99.90;;;;;;6309689;22;20047;-80
2023/03/27 09:22:01;;;;;;;7.43;1.70;;;3.60;99.90;;;;;;6306530;22;20015;-80
2023/03/27 09:24:34;;;;;;;8.83;1.80;;;4.50;99.90;;;;;;6306014;22;20026;-81
2023/03/27 09:27:19;;;;;;;6.30;1.55;;;4.00;99.90;;;;;;6304672;22;20491;-81
2023/03/27 09:29:55;;;;;;;8.23;1.80;;;4.10;99.90;;;;;;6308026;22;20016;-81
2023/03/27 09:32:37;;;;;;;6.13;1.30;;;4.20;99.90;;;;;;6310245;22;20047;-81
2023/03/27 09:35:06;;;;;;;7.03;1.60;;;5.60;99.90;;;;;;6337717;22;20110;-80
2023/03/27 09:37:31;;;;;;;9.13;1.80;;;4.60;99.90;;;;;;6310791;22;20042;-80
2023/03/27 09:40:16;;;;;;;7.97;1.70;;;4.70;99.90;;;;;;6310719;22;20022;-81
2023/03/27 09:42:43;;;;;;;7.23;1.60;;;5.10;99.90;;;;;;6310712;22;20090;-80
2023/03/27 09:45:11;;;;;;;6.60;1.53;;;4.90;99.90;;;;;;6309346;22;20018;-80
2023/03/27 09:48:00;;;;;;;8.57;1.63;;;4.60;99.90;;;;;;6309656;22;20007;-80
2023/03/27 09:50:40;;;;;;;5.47;1.30;;;5.40;99.90;;;;;;6310137;22;20355;-80
2023/03/27 09:53:29;;;;;;;7.70;1.60;;;5.70;99.90;;;;;;6312565;22;20019;-81
2023/03/27 09:55:57;;;;;;;10.10;1.77;;;5.90;99.90;;;;;;6307057;22;20012;-81
2023/03/27 09:58:45;;;;;;;6.67;1.47;;;6.50;99.90;;;;;;6307474;22;20039;-81
2023/03/27 10:01:15;;;;;;;6.27;1.57;;;5.70;99.90;;;;;;6303982;22;20016;-81
2023/03/27 10:03:40;;;;;;;10.30;2.00;;;5.90;99.90;;;;;;6307958;22;20496;-80
2023/03/27 10:06:08;;;;;;;10.20;2.17;;;6.00;99.90;;;;;;6305002;22;20020;-80
2023/03/27 10:08:45;;;;;;;9.37;1.60;;;6.00;99.90;;;;;;6306641;22;20046;-80
2023/03/27 10:11:34;;;;;;;6.43;1.60;;;6.00;99.90;;;;;;6305208;22;20351;-81
2023/03/27 10:14:08;;;;;;;8.13;2.13;;;5.80;99.90;;;;;;6289045;22;20016;-82
2023/03/27 10:16:47;;;;;;;5.83;1.60;;;5.80;99.90;;;;;;6306475;22;20026;-80
2023/03/27 10:19:26;;;;;;;6.70;1.90;;;6.30;99.90;;;;;;6304427;22;20086;-81
2023/03/27 10:22:30;;;;;;;7.17;2.30;;;5.90;99.90;;;;;;6298508;22;20347;-83
2023/03/27 10:25:26;;;;;;;7.25;1.60;;;5.90;99.90;;;;;;6307229;22;20061;-81
2023/03/27 10:27:52;;;;;;;6.17;1.50;;;5.40;99.90;;;;;;6305495;22;20022;-82
2023/03/27 10:30:36;;;;;;;6.77;1.20;;;7.30;99.90;;;;;;6303503;22;20094;-81
2023/03/27 10:33:03;;;;;;;6.90;1.40;;;8.60;99.90;;;;;;6304504;22;20065;-81
2023/03/27 10:35:47;;;;;;;7.47;1.20;;;7.20;99.90;;;;;;6304263;22;20015;-82
2023/03/27 10:38:30;;;;;;;6.38;1.60;;;8.40;99.90;;;;;;6304224;22;20065;-82
2023/03/27 10:41:16;;;;;;;4.88;1.52;;;8.50;99.90;;;;;;6305122;22;20062;-81
2023/03/27 10:43:47;;;;;;;5.90;1.30;;;7.60;99.90;;;;;;6307956;22;20042;-81
2023/03/27 10:46:16;;;;;;;4.67;1.27;;;7.40;99.90;;;;;;6307101;22;20015;-80
2023/03/27 10:48:50;;;;;;;5.77;1.30;;;7.40;99.90;;;;;;6305253;22;20078;-81
2023/03/27 10:51:22;;;;;;;4.33;1.20;;;7.50;99.90;;;;;;6307384;22;20050;-81
2023/03/27 10:53:55;;;;;;;3.93;1.03;;;7.70;99.90;;;;;;6305518;22;20015;-81
2023/03/27 10:56:38;;;;;;;5.93;1.30;;;7.80;99.90;;;;;;6305207;22;20047;-83
2023/03/27 10:59:16;;;;;;;4.80;1.10;;;8.20;99.90;;;;;;6305791;22;20242;-83
2023/03/27 11:01:50;;;;;;;3.00;1.07;;;8.40;99.90;;;;;;6305067;22;20494;-82
2023/03/27 11:04:40;;;;;;;4.10;1.15;;;9.20;99.90;;;;;;6304353;22;20864;-81
2023/03/27 11:07:16;;;;;;;7.57;1.27;;;8.10;99.90;;;;;;6306483;22;20069;-83
2023/03/27 11:09:57;;;;;;;6.30;1.20;;;7.30;99.90;;;;;;6306882;22;20099;-82
2023/03/27 11:12:26;;;;;;;4.40;1.20;;;6.60;99.90;;;;;;6304014;22;20011;-82
2023/03/27 11:15:16;;;;;;;4.63;1.10;;;6.00;99.90;;;;;;6304794;22;20316;-81
2023/03/27 11:17:52;;;;;;;2.70;0.93;;;5.50;99.90;;;;;;6304695;22;20011;-81
2023/03/27 11:20:25;;;;;;;4.53;1.03;;;6.50;99.90;;;;;;6303481;22;20820;-81
2023/03/27 11:23:19;;;;;;;4.03;1.10;;;5.60;99.90;;;;;;6306468;22;20007;-81
2023/03/27 11:26:05;;;;;;;4.95;1.15;;;6.20;99.90;;;;;;6303761;22;20023;-81
2023/03/27 11:29:04;;;;;;;8.63;2.00;;;6.60;99.90;;;;;;6304931;22;20016;-82
2023/03/27 11:31:52;;;;;;;7.03;1.20;;;7.00;99.90;;;;;;6287699;22;20023;-82
2023/03/27 11:34:41;;;;;;;5.03;1.30;;;7.40;99.90;;;;;;6282083;22;20481;-82
2023/03/27 11:37:33;;;;;;;4.80;1.20;;;8.00;99.90;;;;;;6280919;22;20084;-81
2023/03/27 11:40:55;;;;;;;5.40;1.30;;;7.60;99.90;;;;;;6280028;22;20011;-82
2023/03/27 11:43:21;;;;;;;6.80;1.47;;;8.00;99.90;;;;;;6308682;22;20025;-82
2023/03/27 11:46:34;;;;;;;4.43;1.10;;;9.70;99.90;;;;;;6281487;22;20045;-82
2023/03/27 11:49:00;;;;;;;7.10;1.57;;;8.20;99.90;;;;;;6187464;23;20013;-80
2023/03/27 11:51:58;;;;;;;7.27;1.43;;;9.30;99.90;;;;;;6188280;23;20346;-81
2023/03/27 11:54:30;;;;;;;4.55;1.10;;;8.10;99.90;;;;;;6187702;23;20016;-81
2023/03/27 11:57:01;;;;;;;6.67;1.47;;;8.40;99.90;;;;;;6259224;22;20015;-82
2023/03/27 11:59:47;;;;;;;3.00;1.10;;;7.80;99.90;;;;;;6280754;22;20049;-82
2023/03/27 12:02:32;;;;;;;5.63;1.20;;;7.50;99.90;;;;;;6307244;22;20013;-82
2023/03/27 12:05:05;;;;;;;4.00;1.20;;;7.30;99.90;;;;;;6280364;22;20120;-82
2023/03/27 12:07:58;;;;;;;8.43;1.20;;;7.50;99.90;;;;;;6308212;22;20078;-82
2023/03/27 12:10:30;;;;;;;5.90;1.40;;;8.00;99.90;;;;;;6281042;22;20023;-82
2023/03/27 12:12:56;;;;;;;5.30;1.20;;;8.40;99.90;;;;;;6283889;22;20010;-82
2023/03/27 12:15:46;;;;;;;6.07;1.30;;;9.90;99.90;;;;;;6307844;22;20019;-82
2023/03/27 12:18:21;;;;;;;3.83;1.13;;;8.90;99.90;;;;;;6308209;22;20082;-83
2023/03/27 12:20:59;;;;;;;5.22;1.40;;;8.80;99.90;;;;;;6280573;22;20027;-82
2023/03/27 12:23:49;;;;;;;5.87;1.30;;;8.80;99.90;;;;;;6308545;22;20011;-83
2023/03/27 12:26:36;;;;;;;6.05;1.73;;;8.70;99.90;;;;;;6305996;22;20015;-83
2023/03/27 12:29:25;;;;;;;6.35;1.65;;;8.80;99.90;;;;;;6279180;22;20024;-82
2023/03/27 12:32:00;;;;;;;4.47;1.15;;;8.40;99.90;;;;;;6306889;22;20015;-82
2023/03/27 12:34:48;;;;;;;6.35;1.20;;;7.70;99.90;;;;;;6307665;22;20016;-82
2023/03/27 12:37:15;;;;;;;7.63;1.70;;;7.00;99.90;;;;;;6309033;22;20015;-82
2023/03/27 12:39:49;;;;;;;4.33;1.37;;;6.60;99.90;;;;;;6308293;22;20022;-81
2023/03/27 12:42:47;;;;;;;5.87;1.63;;;6.80;99.90;;;;;;6305452;22;20095;-82
2023/03/27 12:45:16;;;;;;;8.93;1.70;;;7.00;99.90;;;;;;6307092;22;20026;-82
2023/03/27 12:48:10;;;;;;;8.67;1.60;;;7.20;99.90;;;;;;6305930;22;20400;-82
2023/03/27 12:50:52;;;;;;;6.77;1.40;;;7.60;99.90;;;;;;6307336;22;20020;-81
2023/03/27 12:53:38;;;;;;;6.83;1.50;;;7.70;99.90;;;;;;6305496;22;20015;-80
2023/03/27 12:56:15;;;;;;;5.97;1.40;;;8.00;99.90;;;;;;6283805;22;20015;-81
2023/03/27 12:58:50;;;;;;;5.63;1.57;;;8.00;99.90;;;;;;6305799;22;20067;-80
2023/03/27 13:01:41;;;;;;;5.97;1.60;;;8.40;99.90;;;;;;6305934;22;20094;-81
2023/03/27 13:04:20;;;;;;;7.72;1.63;;;8.70;99.90;;;;;;6302087;22;20047;-81
2023/03/27 13:06:54;;;;;;;7.40;1.70;;;8.70;99.90;;;;;;6306165;22;20025;-82
2023/03/27 13:09:33;;;;;;;7.57;1.57;;;8.60;99.90;;;;;;6307471;22;20095;-81
2023/03/27 13:12:11;;;;;;;9.03;1.60;;;8.60;99.90;;;;;;6306377;22;20019;-82
2023/03/27 13:14:55;;;;;;;9.20;1.50;;;8.00;99.90;;;;;;6305763;22;20023;-81
2023/03/27 13:17:46;;;;;;;8.90;1.60;;;7.50;99.90;;;;;;6307356;22;20439;-82
2023/03/27 13:20:30;;;;;;;4.03;1.00;;;7.10;99.90;;;;;;6301262;22;20012;-82
2023/03/27 13:23:32;;;;;;;7.32;1.60;;;6.70;99.90;;;;;;6306257;22;20101;-83
2023/03/27 13:26:24;;;;;;;9.73;1.60;;;6.90;99.90;;;;;;6304418;22;20011;-82
2023/03/27 13:28:53;;;;;;;6.10;1.60;;;6.90;99.90;;;;;;6306328;22;20019;-82
2023/03/27 13:31:44;;;;;;;7.27;1.53;;;7.90;99.90;;;;;;6320860;22;20023;-83
2023/03/27 14:00:00;;;;;;;6.90;1.40;;;6.90;99.90;;;;;;6211979;23;20028;-83
2023/03/27 14:03:15;;;;;;;5.63;1.30;;;7.70;99.90;;;;;;6186532;23;20020;-83
2023/03/27 14:09:10;;;;;;;6.60;1.50;;;8.10;99.90;;;;;;6343290;22;20105;-83
2023/03/27 14:12:18;;;;;;;8.33;1.67;;;8.30;99.90;;;;;;6279841;22;20019;-84
2023/03/27 14:15:18;;;;;;;6.75;1.65;;;8.20;99.90;;;;;;6306337;22;20014;-83